Time;durP1;ratioP1;P1;durP2;ratioP2;P2;SDS_P1;SDS_P2;PMS_P1;PMS_P2;Temp;Humidity;BMP_temperature;BMP_pressure;BME280_temperature;BME280_humidity;BME280_pressure;Samples;Min_cycle;Max_cycle;Signal;HPM_P1;HPM_P2
2023/07/10 00:00:35;;;;;;;5.07;3.78;;;25.70;50.60;;;;;;5017569;28;20666;-53
2023/07/10 00:03:02;;;;;;;5.65;4.22;;;25.70;50.60;;;;;;5035145;28;20621;-53
2023/07/10 00:05:31;;;;;;;4.47;4.07;;;25.70;50.70;;;;;;5017737;28;20276;-53
2023/07/10 00:07:58;;;;;;;4.88;3.72;;;25.70;50.70;;;;;;5017375;28;20202;-53
2023/07/10 00:10:25;;;;;;;5.05;4.15;;;25.70;50.80;;;;;;5017325;28;20196;-53
2023/07/10 00:12:52;;;;;;;5.20;4.20;;;25.70;50.80;;;;;;5017202;28;20216;-53
2023/07/10 00:15:20;;;;;;;6.07;3.65;;;25.70;50.80;;;;;;5034989;28;20192;-53
2023/07/10 00:17:47;;;;;;;5.43;3.85;;;25.60;50.80;;;;;;5035179;28;20216;-53
2023/07/10 00:20:16;;;;;;;6.07;3.97;;;25.60;50.80;;;;;;5017141;28;20653;-53
2023/07/10 00:22:44;;;;;;;4.18;3.33;;;25.60;50.90;;;;;;5017029;28;20215;-53
2023/07/10 00:25:11;;;;;;;4.82;3.83;;;25.60;50.80;;;;;;5034931;28;20719;-53
2023/07/10 00:27:39;;;;;;;4.97;3.92;;;25.60;50.90;;;;;;5034732;28;20198;-53
2023/07/10 00:30:14;;;;;;;5.13;4.00;;;25.60;51.00;;;;;;5016978;28;20195;-53
2023/07/10 00:32:41;;;;;;;4.00;3.60;;;25.60;51.10;;;;;;5016863;28;20215;-53
2023/07/10 00:35:09;;;;;;;4.45;3.78;;;25.50;51.00;;;;;;5017138;28;20199;-53
2023/07/10 00:37:36;;;;;;;4.53;4.10;;;25.50;51.10;;;;;;5034685;28;20196;-53
2023/07/10 00:40:10;;;;;;;4.63;3.67;;;25.50;51.10;;;;;;5016831;28;20661;-53
2023/07/10 00:42:37;;;;;;;4.47;3.58;;;25.50;51.10;;;;;;5016710;28;20308;-53
2023/07/10 00:45:05;;;;;;;4.32;3.80;;;25.50;51.00;;;;;;5017502;28;20204;-53
2023/07/10 00:47:35;;;;;;;4.28;3.83;;;25.50;51.10;;;;;;5016685;28;20274;-53
2023/07/10 00:50:04;;;;;;;5.80;4.03;;;25.50;51.00;;;;;;5016624;28;20200;-53
2023/07/10 00:52:34;;;;;;;4.57;3.72;;;25.50;51.00;;;;;;5034439;28;20218;-53
2023/07/10 00:55:01;;;;;;;4.15;3.65;;;25.50;51.00;;;;;;5016577;28;20193;-53
2023/07/10 00:57:33;;;;;;;5.20;3.55;;;25.50;51.00;;;;;;5016511;28;20200;-53
2023/07/10 01:00:00;;;;;;;3.83;3.53;;;25.50;51.10;;;;;;5016709;28;20192;-53
2023/07/10 01:02:27;;;;;;;4.53;3.72;;;25.50;51.10;;;;;;5016443;28;20318;-53
2023/07/10 01:04:58;;;;;;;4.85;3.95;;;25.40;51.10;;;;;;5034074;28;20196;-53
2023/07/10 01:07:25;;;;;;;5.60;3.97;;;25.40;51.10;;;;;;5016453;28;20224;-53
2023/07/10 01:09:55;;;;;;;3.92;3.42;;;25.40;51.20;;;;;;5033954;28;20203;-53
2023/07/10 01:12:22;;;;;;;4.82;3.90;;;25.40;51.10;;;;;;5016480;28;20626;-53
2023/07/10 01:14:50;;;;;;;4.35;3.55;;;25.40;51.10;;;;;;5016148;28;20192;-53
2023/07/10 01:17:17;;;;;;;4.90;3.80;;;25.40;51.10;;;;;;5016173;28;20553;-53
2023/07/10 01:19:45;;;;;;;3.70;3.40;;;25.40;51.20;;;;;;5016359;28;20220;-53
2023/07/10 01:22:14;;;;;;;4.43;3.92;;;25.40;51.20;;;;;;5016018;28;20281;-53
2023/07/10 01:24:41;;;;;;;4.25;3.72;;;25.40;51.20;;;;;;5033990;28;20675;-53
2023/07/10 01:27:11;;;;;;;4.03;3.63;;;25.30;51.20;;;;;;5033676;28;20566;-53
2023/07/10 01:29:41;;;;;;;5.53;3.95;;;25.30;51.20;;;;;;5016053;28;20188;-53
2023/07/10 01:32:09;;;;;;;5.15;4.10;;;25.40;51.20;;;;;;5033590;28;20215;-53
2023/07/10 01:34:38;;;;;;;4.25;3.50;;;25.30;51.20;;;;;;5015868;28;20643;-53
2023/07/10 01:37:05;;;;;;;4.68;3.85;;;25.30;51.20;;;;;;5015461;28;20207;-53
2023/07/10 01:39:38;;;;;;;4.10;3.65;;;25.30;51.20;;;;;;5015732;28;20216;-53
2023/07/10 01:42:06;;;;;;;4.43;3.92;;;25.30;51.20;;;;;;5016016;28;20230;-53
2023/07/10 01:44:34;;;;;;;4.75;3.50;;;25.30;51.20;;;;;;5016366;28;20199;-53
2023/07/10 01:47:02;;;;;;;4.40;3.63;;;25.30;51.20;;;;;;5015683;28;20664;-53
2023/07/10 01:49:32;;;;;;;4.20;3.30;;;25.30;51.30;;;;;;5033590;28;20188;-53
2023/07/10 01:52:00;;;;;;;4.13;3.47;;;25.30;51.30;;;;;;5033764;28;20223;-54
2023/07/10 01:54:27;;;;;;;4.22;3.63;;;25.30;51.30;;;;;;5016259;28;20207;-54
2023/07/10 01:56:55;;;;;;;4.93;3.80;;;25.30;51.30;;;;;;5015730;28;20206;-54
2023/07/10 01:59:22;;;;;;;4.93;3.55;;;25.30;51.30;;;;;;5015658;28;20227;-54
2023/07/10 02:01:49;;;;;;;4.20;3.70;;;25.30;51.30;;;;;;5033362;28;20295;-54
2023/07/10 02:04:17;;;;;;;4.90;3.85;;;25.30;51.80;;;;;;5015658;28;20288;-54
2023/07/10 02:06:44;;;;;;;4.30;3.90;;;25.30;51.30;;;;;;5015710;28;20203;-54
2023/07/10 02:09:11;;;;;;;4.05;3.60;;;25.30;51.30;;;;;;5016154;28;20188;-54
2023/07/10 02:11:38;;;;;;;5.55;4.40;;;25.20;51.30;;;;;;5016357;28;20207;-54
2023/07/10 02:14:07;;;;;;;5.75;4.35;;;25.20;51.30;;;;;;5033477;28;20696;-54
2023/07/10 02:16:34;;;;;;;4.38;3.80;;;25.20;51.30;;;;;;5015739;28;20576;-54
2023/07/10 02:19:00;;;;;;;4.97;3.67;;;25.20;51.30;;;;;;5015378;28;20303;-54
2023/07/10 02:21:27;;;;;;;4.05;3.65;;;25.20;51.30;;;;;;5015420;28;20196;-54
2023/07/10 02:23:55;;;;;;;4.13;3.72;;;25.20;51.40;;;;;;5015415;28;20196;-54
2023/07/10 02:26:21;;;;;;;5.85;3.63;;;25.20;51.40;;;;;;5015680;28;20198;-54
2023/07/10 02:28:49;;;;;;;4.28;3.80;;;25.20;51.40;;;;;;5015342;28;20184;-54
2023/07/10 02:31:17;;;;;;;3.92;3.53;;;25.20;51.40;;;;;;5033222;28;20723;-54
2023/07/10 02:33:44;;;;;;;4.50;3.60;;;25.20;51.40;;;;;;5032985;28;20212;-54
2023/07/10 02:36:13;;;;;;;4.25;3.53;;;25.20;51.40;;;;;;5015220;28;20692;-54
2023/07/10 02:38:40;;;;;;;4.00;3.60;;;25.10;51.40;;;;;;5032877;28;20685;-54
2023/07/10 02:41:07;;;;;;;3.90;3.55;;;25.20;51.50;;;;;;5032948;28;20688;-54
2023/07/10 02:43:35;;;;;;;5.35;3.60;;;25.10;51.50;;;;;;5032849;28;20208;-54
2023/07/10 02:46:02;;;;;;;4.00;3.60;;;25.10;51.50;;;;;;5032982;28;20688;-54
2023/07/10 02:48:32;;;;;;;4.20;3.60;;;25.10;51.60;;;;;;5017426;28;20199;-53
2023/07/10 02:51:00;;;;;;;4.03;3.63;;;25.10;51.60;;;;;;5019493;28;20541;-54
2023/07/10 02:53:27;;;;;;;4.20;3.80;;;25.10;51.60;;;;;;5019148;28;20220;-54
2023/07/10 02:55:54;;;;;;;4.93;3.80;;;25.10;51.70;;;;;;5019686;28;20219;-54
2023/07/10 02:58:21;;;;;;;4.32;3.60;;;25.10;51.70;;;;;;5036693;28;20188;-54
2023/07/10 03:00:55;;;;;;;5.05;3.75;;;25.10;51.80;;;;;;5018707;28;20192;-54
2023/07/10 03:03:22;;;;;;;4.20;3.70;;;25.10;51.80;;;;;;5018550;28;20223;-54
2023/07/10 03:05:54;;;;;;;4.45;4.00;;;25.10;51.80;;;;;;5018600;28;20298;-54
2023/07/10 03:08:22;;;;;;;5.05;4.13;;;25.10;51.90;;;;;;5018599;28;20188;-53
2023/07/10 03:10:49;;;;;;;4.60;4.07;;;25.10;52.10;;;;;;5036276;28;20262;-54
2023/07/10 03:13:16;;;;;;;4.35;3.80;;;25.10;52.20;;;;;;5018305;28;20243;-54
2023/07/10 03:15:42;;;;;;;4.80;4.10;;;25.20;52.50;;;;;;5018596;28;20192;-54
2023/07/10 03:18:09;;;;;;;4.50;4.10;;;25.10;52.50;;;;;;5018418;28;20665;-54
2023/07/10 03:20:40;;;;;;;3.97;3.55;;;25.10;52.50;;;;;;5018252;28;20240;-54
2023/07/10 03:23:09;;;;;;;4.38;3.63;;;25.20;52.40;;;;;;5018312;28;20259;-54
2023/07/10 03:25:36;;;;;;;4.40;4.00;;;25.20;52.40;;;;;;5035968;28;20188;-54
2023/07/10 03:28:03;;;;;;;4.18;3.75;;;25.20;52.40;;;;;;5018362;28;20287;-54
2023/07/10 03:30:30;;;;;;;4.93;3.85;;;25.30;52.60;;;;;;5018413;28;20192;-53
2023/07/10 03:32:57;;;;;;;5.25;4.00;;;25.40;52.50;;;;;;5018074;28;20224;-54
2023/07/10 03:35:24;;;;;;;4.10;3.72;;;25.40;52.50;;;;;;5036071;28;20212;-54
2023/07/10 03:37:51;;;;;;;5.28;3.88;;;25.40;52.30;;;;;;5018022;28;20212;-54
2023/07/10 03:40:20;;;;;;;4.38;3.97;;;25.40;52.30;;;;;;5035624;28;20207;-54
2023/07/10 03:42:47;;;;;;;4.53;3.80;;;25.50;53.00;;;;;;5035551;28;20616;-54
2023/07/10 03:45:14;;;;;;;4.80;4.40;;;25.50;52.50;;;;;;5017895;28;20202;-54
2023/07/10 03:47:41;;;;;;;5.22;4.22;;;25.50;52.60;;;;;;5017781;28;20283;-54
2023/07/10 03:50:10;;;;;;;4.65;4.20;;;25.50;52.50;;;;;;5018276;28;20224;-54
2023/07/10 03:52:37;;;;;;;5.07;4.20;;;25.50;52.60;;;;;;5017671;28;20697;-54
2023/07/10 03:55:04;;;;;;;5.80;4.45;;;25.50;52.60;;;;;;5017673;28;20204;-54
2023/07/10 03:57:33;;;;;;;5.40;3.95;;;25.50;52.60;;;;;;5017614;28;20219;-54
2023/07/10 03:59:59;;;;;;;4.32;3.92;;;25.50;52.70;;;;;;5017594;28;20222;-54
2023/07/10 04:02:26;;;;;;;4.80;4.22;;;25.50;52.70;;;;;;5017722;28;20331;-54
2023/07/10 04:04:53;;;;;;;5.20;4.00;;;25.50;52.80;;;;;;5017843;28;20203;-54
2023/07/10 04:07:20;;;;;;;7.07;4.60;;;25.50;53.00;;;;;;5027974;23;20255;-75
2023/07/10 04:09:47;;;;;;;6.53;4.30;;;25.50;53.00;;;;;;5015381;28;20189;-72
2023/07/10 04:12:14;;;;;;;7.25;4.55;;;25.40;55.00;;;;;;5014165;28;20247;-76
2023/07/10 04:14:43;;;;;;;5.07;4.57;;;25.50;56.00;;;;;;5014208;28;20223;-75
2023/07/10 04:17:14;;;;;;;6.85;5.10;;;25.30;56.50;;;;;;5015226;28;20223;-76
2023/07/10 04:19:41;;;;;;;5.35;4.85;;;25.20;56.90;;;;;;5014009;28;20209;-75
2023/07/10 04:22:08;;;;;;;5.15;4.68;;;25.20;57.20;;;;;;5015050;28;20196;-78
2023/07/10 04:24:35;;;;;;;5.57;4.60;;;25.10;57.30;;;;;;5016393;28;20221;-78
2023/07/10 04:27:02;;;;;;;7.90;5.07;;;25.10;57.50;;;;;;5013921;28;20203;-74
2023/07/10 04:29:30;;;;;;;6.13;4.95;;;25.10;57.80;;;;;;5013942;28;20618;-75
2023/07/10 04:31:58;;;;;;;5.43;4.72;;;25.00;58.00;;;;;;5013914;28;20249;-74
2023/07/10 04:34:25;;;;;;;6.45;4.75;;;24.90;58.40;;;;;;5013983;28;20217;-76
2023/07/10 04:36:52;;;;;;;6.07;5.20;;;24.90;58.50;;;;;;5013874;28;20211;-78
2023/07/10 04:39:19;;;;;;;5.63;4.60;;;24.90;58.70;;;;;;5014894;28;20223;-75
2023/07/10 04:41:46;;;;;;;7.63;5.00;;;24.80;59.00;;;;;;5013847;28;20200;-76
2023/07/10 04:44:14;;;;;;;7.15;5.10;;;24.70;59.30;;;;;;5013492;28;20225;-76
2023/07/10 04:46:42;;;;;;;5.68;4.95;;;24.70;59.40;;;;;;5013569;28;20196;-72
2023/07/10 04:49:10;;;;;;;5.97;4.40;;;24.70;59.40;;;;;;5013487;28;20200;-74
2023/07/10 04:51:37;;;;;;;6.00;4.85;;;24.60;59.40;;;;;;5014001;28;20235;-72
2023/07/10 04:54:04;;;;;;;5.70;4.93;;;24.70;59.50;;;;;;5016316;28;20229;-74
2023/07/10 04:56:31;;;;;;;5.38;4.57;;;24.60;60.00;;;;;;5014439;28;20220;-73
2023/07/10 04:58:59;;;;;;;7.03;5.13;;;24.60;59.00;;;;;;5014452;28;20200;-73
2023/07/10 05:01:27;;;;;;;7.65;4.90;;;24.60;58.20;;;;;;5013627;28;20588;-74
2023/07/10 05:03:54;;;;;;;7.80;4.90;;;24.70;57.80;;;;;;5013394;28;20228;-75
2023/07/10 05:06:22;;;;;;;6.72;4.85;;;24.70;57.40;;;;;;5013426;28;20232;-71
2023/07/10 05:08:52;;;;;;;6.05;4.72;;;24.80;58.90;;;;;;5014360;28;20660;-72
2023/07/10 05:11:19;;;;;;;4.72;4.32;;;24.90;57.60;;;;;;5013923;28;20189;-71
2023/07/10 05:13:46;;;;;;;6.38;4.80;;;25.00;57.00;;;;;;5013262;28;20597;-72
2023/07/10 05:16:15;;;;;;;5.75;4.20;;;25.20;56.40;;;;;;5013422;28;20739;-73
2023/07/10 05:18:42;;;;;;;5.60;4.95;;;25.30;55.80;;;;;;5012934;28;20211;-72
2023/07/10 05:21:08;;;;;;;6.93;5.00;;;25.40;55.50;;;;;;5014114;28;20690;-72
2023/07/10 05:23:37;;;;;;;6.35;5.13;;;25.60;55.20;;;;;;5012935;28;20232;-72
2023/07/10 05:26:05;;;;;;;8.27;4.93;;;25.60;54.90;;;;;;5014273;28;20289;-72
2023/07/10 05:28:31;;;;;;;8.25;5.18;;;25.70;54.70;;;;;;5014449;28;20211;-72
2023/07/10 05:30:59;;;;;;;7.55;4.80;;;25.70;54.60;;;;;;5014060;28;20189;-72
2023/07/10 05:33:26;;;;;;;6.35;4.70;;;25.70;54.40;;;;;;5012639;28;20587;-72
2023/07/10 05:35:55;;;;;;;7.40;4.80;;;25.80;54.20;;;;;;5012776;28;20599;-72
2023/07/10 05:38:23;;;;;;;6.78;4.32;;;25.90;54.00;;;;;;5013820;28;20193;-72
2023/07/10 05:40:52;;;;;;;5.60;4.43;;;26.10;53.80;;;;;;5012673;28;20232;-73
2023/07/10 05:43:19;;;;;;;5.75;4.45;;;26.20;53.30;;;;;;5013011;28;20204;-73
2023/07/10 05:45:47;;;;;;;4.57;4.15;;;26.30;52.90;;;;;;5012654;28;20578;-72
2023/07/10 05:48:14;;;;;;;7.78;4.78;;;26.50;52.60;;;;;;5012541;28;20204;-72
2023/07/10 05:50:43;;;;;;;6.72;4.65;;;26.60;52.20;;;;;;5013731;28;20207;-72
2023/07/10 05:53:10;;;;;;;5.15;4.22;;;26.80;51.80;;;;;;5012442;28;20571;-72
2023/07/10 05:55:37;;;;;;;5.30;4.22;;;26.90;51.40;;;;;;5012562;28;20207;-72
2023/07/10 05:58:05;;;;;;;5.35;4.03;;;27.00;51.30;;;;;;5014030;28;20580;-73
2023/07/10 06:00:33;;;;;;;5.90;4.50;;;27.00;51.10;;;;;;5012522;28;20698;-73
2023/07/10 06:03:00;;;;;;;6.70;4.75;;;27.10;51.10;;;;;;5012472;28;20658;-72
2023/07/10 06:05:27;;;;;;;4.70;4.20;;;27.00;51.10;;;;;;5012351;28;20228;-73
2023/07/10 06:07:56;;;;;;;5.53;4.50;;;27.00;51.20;;;;;;5012879;28;20669;-72
2023/07/10 06:10:22;;;;;;;5.72;4.32;;;27.00;51.00;;;;;;5012552;28;20192;-72
2023/07/10 06:12:50;;;;;;;5.05;4.45;;;27.20;51.10;;;;;;5012351;28;20291;-72
2023/07/10 06:15:18;;;;;;;6.45;4.78;;;27.20;50.70;;;;;;5013628;28;20208;-72
2023/07/10 06:17:46;;;;;;;7.45;4.80;;;27.40;50.30;;;;;;5012313;28;20554;-72
2023/07/10 06:20:14;;;;;;;5.00;4.50;;;27.50;50.00;;;;;;5012233;28;20226;-73
2023/07/10 06:22:41;;;;;;;5.32;4.82;;;27.60;49.80;;;;;;5014859;28;20269;-73
2023/07/10 06:25:08;;;;;;;6.25;4.50;;;27.70;49.50;;;;;;5016309;28;20227;-73
2023/07/10 06:27:35;;;;;;;5.43;4.18;;;27.90;49.30;;;;;;5017551;28;20195;-72
2023/07/10 06:30:03;;;;;;;5.68;5.00;;;27.90;48.90;;;;;;5016251;28;20291;-73
2023/07/10 06:32:34;;;;;;;5.18;4.38;;;28.10;48.70;;;;;;5016407;28;20200;-72
2023/07/10 06:35:01;;;;;;;6.75;4.47;;;28.10;48.40;;;;;;5016032;28;20311;-73
2023/07/10 06:37:28;;;;;;;5.00;4.40;;;28.30;48.30;;;;;;5016457;28;20294;-74
2023/07/10 06:40:06;;;;;;;8.07;4.90;;;28.30;47.90;;;;;;5016239;28;20705;-72
2023/07/10 06:42:33;;;;;;;7.43;4.65;;;28.50;47.80;;;;;;5017454;28;20555;-72
2023/07/10 06:45:00;;;;;;;5.75;4.65;;;28.50;48.10;;;;;;5015937;28;20228;-72
2023/07/10 06:47:27;;;;;;;7.40;5.05;;;28.50;47.50;;;;;;5015927;28;20200;-73
2023/07/10 06:49:56;;;;;;;8.38;4.90;;;28.50;47.40;;;;;;5015907;28;20295;-73
2023/07/10 06:52:23;;;;;;;7.70;4.90;;;28.50;47.40;;;;;;5016017;28;20196;-73
2023/07/10 06:54:52;;;;;;;7.90;4.82;;;28.60;47.40;;;;;;5015570;28;20224;-74
2023/07/10 06:57:20;;;;;;;6.95;4.85;;;28.70;47.20;;;;;;5015717;28;20294;-73
2023/07/10 06:59:47;;;;;;;5.88;4.60;;;28.80;47.00;;;;;;5015612;28;20576;-73
2023/07/10 07:02:14;;;;;;;5.75;4.47;;;28.90;46.80;;;;;;5016806;28;20279;-74
2023/07/10 07:04:41;;;;;;;6.50;4.60;;;28.90;46.60;;;;;;5015378;28;20248;-73
2023/07/10 07:07:10;;;;;;;5.75;4.40;;;28.90;46.50;;;;;;5015367;28;20203;-73
2023/07/10 07:09:37;;;;;;;7.15;4.70;;;28.90;46.50;;;;;;5016565;28;20177;-73
2023/07/10 07:12:04;;;;;;;6.15;4.43;;;28.80;46.70;;;;;;5015253;28;20196;-73
2023/07/10 07:14:32;;;;;;;5.78;4.50;;;28.70;46.70;;;;;;5016460;28;20219;-74
2023/07/10 07:16:58;;;;;;;7.90;4.63;;;28.80;46.90;;;;;;5016578;28;20196;-74
2023/07/10 07:19:26;;;;;;;5.57;4.57;;;28.70;47.20;;;;;;5015293;28;20204;-73
2023/07/10 07:21:53;;;;;;;6.28;4.60;;;28.60;47.40;;;;;;5015537;28;20563;-73
2023/07/10 07:24:22;;;;;;;6.88;4.50;;;28.60;47.50;;;;;;5014960;28;20220;-73
2023/07/10 07:26:49;;;;;;;5.82;4.53;;;28.60;47.80;;;;;;5015155;28;20627;-74
2023/07/10 07:29:16;;;;;;;7.53;4.72;;;28.50;47.90;;;;;;5015060;28;20199;-74
2023/07/10 07:31:42;;;;;;;7.03;5.05;;;28.50;48.00;;;;;;5015266;28;20204;-74
2023/07/10 07:34:10;;;;;;;6.05;4.65;;;28.40;48.20;;;;;;5013943;28;20706;-73
2023/07/10 07:36:37;;;;;;;5.28;4.25;;;28.40;48.40;;;;;;5014823;28;20200;-73
2023/07/10 07:39:05;;;;;;;5.28;4.25;;;28.30;48.50;;;;;;5015464;28;20196;-73
2023/07/10 07:41:33;;;;;;;5.70;4.68;;;28.20;48.60;;;;;;5015008;28;20227;-73
2023/07/10 07:44:00;;;;;;;5.65;4.30;;;28.20;48.70;;;;;;5014758;28;20216;-74
2023/07/10 07:46:28;;;;;;;5.43;4.30;;;28.20;48.80;;;;;;5014619;28;20200;-73
2023/07/10 07:48:55;;;;;;;7.35;4.35;;;28.20;48.70;;;;;;5014733;28;20670;-73
2023/07/10 07:51:22;;;;;;;6.05;4.40;;;28.40;48.50;;;;;;5014811;28;20221;-73
2023/07/10 07:54:03;;;;;;;6.03;3.90;;;28.50;48.10;;;;;;5014869;28;20219;-73
2023/07/10 07:56:30;;;;;;;5.72;4.47;;;28.60;47.80;;;;;;5014569;28;20242;-74
2023/07/10 07:58:59;;;;;;;5.32;4.63;;;28.70;47.50;;;;;;5014506;28;20200;-73
2023/07/10 08:01:26;;;;;;;5.65;4.25;;;28.80;47.50;;;;;;5014638;28;20219;-73
2023/07/10 08:03:53;;;;;;;5.95;4.45;;;28.90;47.20;;;;;;5017001;28;20216;-74
2023/07/10 08:06:20;;;;;;;6.05;4.20;;;29.00;46.90;;;;;;5014730;28;20207;-73
2023/07/10 08:08:47;;;;;;;4.57;4.00;;;29.10;46.60;;;;;;5014204;28;20262;-73
2023/07/10 08:11:16;;;;;;;5.63;4.40;;;29.20;46.30;;;;;;5014382;28;20200;-74
2023/07/10 08:13:43;;;;;;;5.50;4.22;;;29.30;46.30;;;;;;5014769;28;20224;-74
2023/07/10 08:16:12;;;;;;;5.57;4.25;;;29.30;46.00;;;;;;5014260;28;20233;-74
2023/07/10 08:18:40;;;;;;;4.88;3.95;;;29.40;45.90;;;;;;5014450;28;20270;-73
2023/07/10 08:21:08;;;;;;;5.40;4.78;;;29.50;45.70;;;;;;5013961;28;20212;-74
2023/07/10 08:23:36;;;;;;;6.60;4.10;;;29.50;45.50;;;;;;5014495;28;20216;-74
2023/07/10 08:26:03;;;;;;;6.90;4.47;;;29.60;45.40;;;;;;5015370;28;20199;-74
2023/07/10 08:28:30;;;;;;;5.18;3.78;;;29.60;45.30;;;;;;5014057;28;20200;-74
2023/07/10 08:30:57;;;;;;;6.15;4.40;;;29.70;45.30;;;;;;5014126;28;20283;-74
2023/07/10 08:33:26;;;;;;;5.80;4.15;;;29.60;45.20;;;;;;5014161;28;20193;-74
2023/07/10 08:35:56;;;;;;;5.68;4.18;;;29.70;45.30;;;;;;5014054;28;20589;-73
2023/07/10 08:38:23;;;;;;;5.13;4.50;;;29.60;45.20;;;;;;5015513;28;20173;-74
2023/07/10 08:40:53;;;;;;;5.13;4.15;;;29.60;45.10;;;;;;5015194;28;20208;-74
2023/07/10 08:43:26;;;;;;;4.60;4.05;;;29.70;45.20;;;;;;5013756;28;20204;-74
2023/07/10 08:45:54;;;;;;;5.00;4.00;;;29.60;45.40;;;;;;5013790;28;20192;-73
2023/07/10 08:48:26;;;;;;;5.07;4.00;;;29.60;45.40;;;;;;5014888;28;20192;-73
2023/07/10 08:50:56;;;;;;;5.57;4.20;;;29.60;45.30;;;;;;5013674;28;20193;-74
2023/07/10 08:53:24;;;;;;;4.43;4.00;;;29.70;45.20;;;;;;5013638;28;20200;-75
2023/07/10 08:55:56;;;;;;;4.72;4.00;;;29.70;45.00;;;;;;5014662;28;20188;-74
2023/07/10 08:58:24;;;;;;;5.57;4.25;;;29.80;45.00;;;;;;5013557;28;20219;-74
2023/07/10 09:00:54;;;;;;;6.45;4.00;;;29.80;44.80;;;;;;5013188;28;20212;-74
2023/07/10 09:03:30;;;;;;;4.65;3.78;;;29.80;44.60;;;;;;5013180;28;20196;-73
2023/07/10 09:05:58;;;;;;;4.40;3.80;;;29.90;44.50;;;;;;5013552;28;20196;-74
2023/07/10 09:08:26;;;;;;;4.35;3.72;;;30.00;44.40;;;;;;5014633;28;20196;-74
2023/07/10 09:10:54;;;;;;;4.88;3.88;;;30.00;44.40;;;;;;5013260;28;20279;-74
2023/07/10 09:13:24;;;;;;;5.07;3.90;;;30.10;44.30;;;;;;5014943;28;20188;-74
2023/07/10 09:15:52;;;;;;;4.72;3.95;;;30.00;44.20;;;;;;5013563;28;20196;-75
2023/07/10 09:18:21;;;;;;;6.15;4.25;;;30.10;44.30;;;;;;5013149;28;20200;-74
2023/07/10 09:20:48;;;;;;;4.75;4.00;;;30.00;44.40;;;;;;5012969;28;20216;-74
2023/07/10 09:23:21;;;;;;;4.68;3.90;;;29.90;44.50;;;;;;5013042;28;20278;-74
2023/07/10 09:25:53;;;;;;;4.72;3.88;;;29.90;44.60;;;;;;5013002;28;20192;-74
2023/07/10 09:28:20;;;;;;;5.35;3.80;;;29.90;44.50;;;;;;5012849;28;20200;-74
2023/07/10 09:30:52;;;;;;;4.35;3.95;;;29.90;44.40;;;;;;5012894;28;20214;-74
2023/07/10 09:33:20;;;;;;;4.63;3.70;;;30.00;44.40;;;;;;5012730;28;20572;-74
2023/07/10 09:35:47;;;;;;;5.03;3.92;;;30.00;44.40;;;;;;5014009;28;20204;-74
2023/07/10 09:38:14;;;;;;;4.43;3.88;;;30.00;44.40;;;;;;5012664;28;20709;-74
2023/07/10 09:40:44;;;;;;;4.72;3.72;;;30.00;44.40;;;;;;5012644;28;20216;-75
2023/07/10 09:43:14;;;;;;;4.00;3.60;;;29.90;44.50;;;;;;5012771;28;20269;-74
2023/07/10 09:45:44;;;;;;;4.82;3.70;;;29.90;44.50;;;;;;5012806;28;20224;-74
2023/07/10 09:48:13;;;;;;;4.32;3.92;;;29.90;44.50;;;;;;5012630;28;20200;-74
2023/07/10 09:50:40;;;;;;;4.07;3.65;;;29.90;44.40;;;;;;5012652;28;20550;-74
2023/07/10 09:53:09;;;;;;;4.82;3.90;;;29.90;44.40;;;;;;5013748;28;20192;-74
2023/07/10 09:55:43;;;;;;;3.95;3.55;;;30.00;44.40;;;;;;5013793;28;20204;-74
2023/07/10 09:58:13;;;;;;;4.20;3.63;;;30.00;44.40;;;;;;5012151;28;20205;-74
2023/07/10 10:00:43;;;;;;;4.20;3.80;;;30.10;44.30;;;;;;5012401;28;20200;-74
2023/07/10 10:03:15;;;;;;;3.90;3.50;;;30.10;44.30;;;;;;5014100;28;20190;-74
2023/07/10 10:05:42;;;;;;;4.03;3.63;;;30.00;44.20;;;;;;5012454;28;20211;-74
2023/07/10 10:08:16;;;;;;;5.22;3.90;;;30.00;44.20;;;;;;5129123;23;20232;-81
2023/07/10 10:10:44;;;;;;;4.70;3.70;;;30.00;44.20;;;;;;4997790;28;20196;-81
2023/07/10 10:13:15;;;;;;;4.90;3.53;;;30.00;44.20;;;;;;5012948;28;20196;-81
2023/07/10 10:15:46;;;;;;;4.18;3.50;;;30.00;44.30;;;;;;5012993;28;20199;-81
2023/07/10 10:18:24;;;;;;;4.07;3.47;;;30.00;44.30;;;;;;5012804;28;20192;-81
2023/07/10 10:20:51;;;;;;;3.95;3.53;;;30.00;44.40;;;;;;5012865;28;20192;-81
2023/07/10 10:23:29;;;;;;;3.92;3.60;;;30.00;44.40;;;;;;5012825;28;20200;-81
2023/07/10 10:26:00;;;;;;;4.18;3.75;;;29.90;44.40;;;;;;5013625;28;20237;-81
2023/07/10 10:28:31;;;;;;;4.20;3.80;;;29.90;44.50;;;;;;5012621;28;20711;-81
2023/07/10 10:30:59;;;;;;;3.78;3.47;;;29.90;44.50;;;;;;5013475;28;20200;-81
2023/07/10 10:33:28;;;;;;;3.80;3.50;;;29.80;44.70;;;;;;5012672;28;20238;-81
2023/07/10 10:35:56;;;;;;;4.13;3.58;;;29.80;44.80;;;;;;5012474;28;20231;-81
2023/07/10 10:38:40;;;;;;;5.07;3.85;;;29.70;44.80;;;;;;5012820;28;20200;-81
2023/07/10 10:41:22;;;;;;;3.88;3.55;;;29.80;44.90;;;;;;5012393;28;20578;-81
2023/07/10 10:43:53;;;;;;;3.83;3.42;;;29.70;44.90;;;;;;5012974;28;20199;-81
2023/07/10 10:46:26;;;;;;;4.00;3.60;;;29.70;45.00;;;;;;5012578;28;20188;-81
2023/07/10 10:48:57;;;;;;;4.00;3.60;;;29.70;45.00;;;;;;5012551;28;20282;-81
2023/07/10 10:51:29;;;;;;;4.18;3.60;;;29.70;45.20;;;;;;5012596;28;20195;-81
2023/07/10 10:54:01;;;;;;;4.07;3.67;;;29.70;45.20;;;;;;4995994;28;20582;-81
2023/07/10 10:56:32;;;;;;;3.90;3.60;;;29.60;45.30;;;;;;5012363;28;20192;-81
2023/07/10 10:59:18;;;;;;;4.05;3.65;;;29.60;45.30;;;;;;5012445;28;20224;-81
2023/07/10 11:01:48;;;;;;;4.00;3.60;;;29.50;45.40;;;;;;5012480;28;20274;-80
2023/07/10 11:04:19;;;;;;;3.92;3.50;;;29.40;45.50;;;;;;5012757;28;20299;-80
2023/07/10 11:06:50;;;;;;;3.90;3.58;;;29.40;45.70;;;;;;5014572;28;20663;-80
2023/07/10 11:09:21;;;;;;;3.90;3.35;;;29.40;45.80;;;;;;5016492;28;20623;-81
2023/07/10 11:11:50;;;;;;;4.45;3.85;;;29.30;45.90;;;;;;5017674;28;20287;-81
2023/07/10 11:14:16;;;;;;;3.53;3.22;;;29.30;45.90;;;;;;5017968;28;20231;-81
2023/07/10 11:16:44;;;;;;;3.80;3.40;;;29.30;46.10;;;;;;5021023;28;20212;-81
2023/07/10 11:19:17;;;;;;;3.97;3.58;;;29.20;46.10;;;;;;5025567;28;20216;-81
2023/07/10 11:21:45;;;;;;;4.05;3.65;;;29.20;46.30;;;;;;5022206;28;20675;-81
2023/07/10 11:24:17;;;;;;;3.75;3.45;;;29.20;46.30;;;;;;5003434;28;20254;-81
2023/07/10 11:26:44;;;;;;;3.90;3.50;;;29.20;46.20;;;;;;5015594;28;20196;-81
2023/07/10 11:29:29;;;;;;;4.10;3.70;;;29.20;46.20;;;;;;5015260;28;20220;-81
2023/07/10 11:31:57;;;;;;;3.90;3.50;;;29.20;46.30;;;;;;5015665;28;20387;-81
2023/07/10 11:34:50;;;;;;;3.95;3.40;;;29.20;46.40;;;;;;5018019;28;20575;-81
2023/07/10 11:37:54;;;;;;;3.92;3.55;;;29.10;46.30;;;;;;5018738;28;20192;-81
2023/07/10 11:40:50;;;;;;;3.55;3.25;;;29.10;46.40;;;;;;5002385;28;20228;-81
2023/07/10 11:43:52;;;;;;;3.72;3.35;;;29.10;46.50;;;;;;5003416;28;20306;-81
2023/07/10 11:46:25;;;;;;;3.70;3.40;;;29.10;46.60;;;;;;4944756;29;20357;-81
2023/07/10 11:49:22;;;;;;;3.50;3.20;;;29.10;46.60;;;;;;4944924;29;20226;-81
2023/07/10 11:52:11;;;;;;;3.95;3.45;;;29.10;46.60;;;;;;5003198;28;20196;-81
2023/07/10 11:54:40;;;;;;;3.60;3.30;;;29.10;46.60;;;;;;5015280;28;20657;-81
2023/07/10 11:57:12;;;;;;;3.60;3.30;;;29.10;46.70;;;;;;5015088;28;20211;-81
2023/07/10 11:59:39;;;;;;;3.40;3.10;;;29.10;46.70;;;;;;5016727;28;20238;-81
2023/07/10 12:02:27;;;;;;;4.10;3.35;;;29.10;46.70;;;;;;4998593;28;20224;-81
2023/07/10 12:04:54;;;;;;;3.53;3.22;;;29.10;46.70;;;;;;4998655;28;20231;-81
2023/07/10 12:07:21;;;;;;;3.45;3.15;;;29.10;46.60;;;;;;5014507;28;20567;-81
2023/07/10 12:09:51;;;;;;;3.60;3.30;;;29.10;46.70;;;;;;4998647;28;20216;-81
2023/07/10 12:12:19;;;;;;;3.60;3.30;;;29.10;46.70;;;;;;5014682;28;20196;-81
2023/07/10 12:14:46;;;;;;;3.75;3.45;;;29.10;46.70;;;;;;5014955;28;20192;-81
2023/07/10 12:17:15;;;;;;;3.45;3.15;;;29.10;46.70;;;;;;5014658;28;20200;-80
2023/07/10 12:19:44;;;;;;;4.10;3.70;;;29.10;46.70;;;;;;5013994;28;20598;-80
2023/07/10 12:22:19;;;;;;;3.67;3.38;;;29.10;46.70;;;;;;5014615;28;20216;-80
2023/07/10 12:24:50;;;;;;;3.75;3.40;;;29.10;46.70;;;;;;5014550;28;20195;-81
2023/07/10 12:27:18;;;;;;;4.18;3.28;;;29.10;46.70;;;;;;5014489;28;20204;-81
2023/07/10 12:29:49;;;;;;;3.50;3.20;;;29.10;46.70;;;;;;5014890;28;20209;-81
2023/07/10 12:32:16;;;;;;;3.78;3.20;;;29.10;46.70;;;;;;5014186;28;20273;-81
2023/07/10 12:34:45;;;;;;;4.03;3.10;;;29.10;46.60;;;;;;5014294;28;20606;-81
2023/07/10 12:37:12;;;;;;;3.83;3.47;;;29.10;46.70;;;;;;4982465;28;20200;-81
2023/07/10 12:39:39;;;;;;;3.65;3.35;;;29.10;46.60;;;;;;5014022;28;20630;-81
2023/07/10 12:42:25;;;;;;;3.80;3.50;;;29.10;46.60;;;;;;5014292;28;20212;-80
2023/07/10 12:44:53;;;;;;;3.63;3.33;;;29.10;46.70;;;;;;5014051;28;20251;-80
2023/07/10 12:47:20;;;;;;;3.47;3.17;;;29.10;46.60;;;;;;5013900;28;20210;-80
2023/07/10 12:49:52;;;;;;;3.70;3.40;;;29.10;46.70;;;;;;5014040;28;20227;-80
2023/07/10 12:52:19;;;;;;;3.13;2.92;;;29.10;46.70;;;;;;5013761;28;20242;-80
2023/07/10 12:54:48;;;;;;;3.50;3.20;;;29.10;46.70;;;;;;5013821;28;20250;-80
2023/07/10 12:57:16;;;;;;;3.60;3.13;;;29.10;46.60;;;;;;5013667;28;20239;-80